Time;durP1;ratioP1;P1;durP2;ratioP2;P2;SDS_P1;SDS_P2;PMS_P1;PMS_P2;Temp;Humidity;BMP_temperature;BMP_pressure;BME280_temperature;BME280_humidity;BME280_pressure;Samples;Min_cycle;Max_cycle;Signal;HPM_P1;HPM_P2
2023/12/23 00:00:47;;;;;;;2.88;0.57;;;;;;;;;;5070400;28;20056;-71
2023/12/23 00:03:13;;;;;;;2.97;0.70;;;;;;;;;;5070670;28;20044;-71
2023/12/23 00:05:42;;;;;;;3.97;0.80;;;;;;;;;;5069965;28;20437;-71
2023/12/23 00:08:08;;;;;;;3.03;0.77;;;;;;;;;;5070424;28;20182;-69
2023/12/23 00:10:35;;;;;;;2.38;0.73;;;;;;;;;;5070047;28;20048;-72
2023/12/23 00:13:02;;;;;;;4.78;0.77;;;;;;;;;;5070459;28;20051;-71
2023/12/23 00:15:29;;;;;;;3.22;0.50;;;;;;;;;;5070155;28;20044;-71
2023/12/23 00:17:55;;;;;;;3.70;0.63;;;;;;;;;;5069991;28;20048;-72
2023/12/23 00:20:23;;;;;;;3.88;1.13;;;;;;;;;;5070123;28;20154;-72
2023/12/23 00:22:49;;;;;;;4.13;1.08;;;;;;;;;;5070032;28;20080;-71
2023/12/23 00:25:16;;;;;;;3.75;0.90;;;;;;;;;;5069848;28;20044;-71
2023/12/23 00:27:45;;;;;;;3.35;0.80;;;;;;;;;;5069478;28;20060;-72
2023/12/23 00:30:13;;;;;;;1.90;0.63;;;;;;;;;;5070032;28;20048;-71
2023/12/23 00:32:40;;;;;;;6.07;1.40;;;;;;;;;;5069561;28;20045;-71
2023/12/23 00:35:07;;;;;;;6.95;1.23;;;;;;;;;;5069858;28;20044;-71
2023/12/23 00:37:35;;;;;;;2.67;0.52;;;;;;;;;;5069634;28;20127;-72
2023/12/23 00:40:02;;;;;;;2.83;0.60;;;;;;;;;;5069488;28;20520;-71
2023/12/23 00:42:29;;;;;;;9.10;1.38;;;;;;;;;;5069524;28;20500;-71
2023/12/23 00:44:56;;;;;;;6.43;1.00;;;;;;;;;;5069658;28;20660;-71
2023/12/23 00:47:22;;;;;;;8.02;1.00;;;;;;;;;;5069264;28;20401;-71
2023/12/23 00:49:49;;;;;;;3.97;0.90;;;;;;;;;;5069680;28;20040;-71
2023/12/23 00:52:19;;;;;;;4.00;0.80;;;;;;;;;;5069125;28;20516;-71
2023/12/23 00:54:45;;;;;;;3.83;0.70;;;;;;;;;;5080170;28;20046;-71
2023/12/23 00:57:12;;;;;;;4.15;0.90;;;;;;;;;;5089232;28;20044;-70
2023/12/23 00:59:39;;;;;;;4.47;0.70;;;;;;;;;;5089911;28;20047;-71
2023/12/23 01:02:05;;;;;;;2.60;0.82;;;;;;;;;;5089729;28;20044;-71
2023/12/23 01:04:32;;;;;;;5.38;1.02;;;;;;;;;;5089941;28;20070;-71
2023/12/23 01:06:59;;;;;;;5.63;0.88;;;;;;;;;;5089082;28;20050;-70
2023/12/23 01:09:26;;;;;;;4.55;1.35;;;;;;;;;;5089436;28;20130;-70
2023/12/23 01:11:52;;;;;;;4.00;0.75;;;;;;;;;;5089149;28;20649;-70
2023/12/23 01:14:19;;;;;;;4.82;1.25;;;;;;;;;;5089611;28;20052;-71
2023/12/23 01:16:45;;;;;;;4.47;0.85;;;;;;;;;;5089308;28;20040;-71
2023/12/23 01:19:12;;;;;;;3.47;0.80;;;;;;;;;;5089683;28;20495;-71
2023/12/23 01:21:39;;;;;;;6.90;1.02;;;;;;;;;;5089422;28;20052;-70
2023/12/23 01:24:06;;;;;;;6.85;0.90;;;;;;;;;;5089290;28;20055;-70
2023/12/23 01:26:32;;;;;;;3.38;0.90;;;;;;;;;;5088784;28;20077;-71
2023/12/23 01:29:03;;;;;;;2.63;0.70;;;;;;;;;;5089162;28;20055;-70
2023/12/23 01:31:29;;;;;;;4.13;1.10;;;;;;;;;;5089326;28;20052;-71
2023/12/23 01:33:56;;;;;;;7.03;1.00;;;;;;;;;;5089566;28;20055;-71
2023/12/23 01:36:23;;;;;;;3.47;0.70;;;;;;;;;;5089099;28;20136;-71
2023/12/23 01:38:50;;;;;;;5.32;0.80;;;;;;;;;;5089399;28;20044;-71
2023/12/23 01:41:16;;;;;;;2.45;0.98;;;;;;;;;;5089459;28;20050;-71
2023/12/23 01:43:43;;;;;;;4.82;0.75;;;;;;;;;;5089244;28;20556;-72
2023/12/23 01:46:10;;;;;;;3.92;0.95;;;;;;;;;;5089251;28;20078;-71
2023/12/23 01:48:41;;;;;;;1.45;0.43;;;;;;;;;;5088997;28;20055;-71
2023/12/23 01:51:09;;;;;;;3.15;0.85;;;;;;;;;;5089164;28;20047;-71
2023/12/23 01:53:36;;;;;;;2.72;0.60;;;;;;;;;;5088895;28;20048;-71
2023/12/23 01:56:04;;;;;;;5.13;0.82;;;;;;;;;;5089211;28;20040;-71
2023/12/23 01:58:31;;;;;;;3.88;0.70;;;;;;;;;;5088896;28;20129;-71
2023/12/23 02:00:57;;;;;;;2.90;0.75;;;;;;;;;;5089122;28;20504;-71
2023/12/23 02:03:25;;;;;;;6.60;1.30;;;;;;;;;;5088647;28;20075;-71
2023/12/23 02:05:55;;;;;;;3.28;0.73;;;;;;;;;;5088944;28;20143;-71
2023/12/23 02:08:22;;;;;;;3.75;0.82;;;;;;;;;;5088773;28;20048;-71
2023/12/23 02:11:12;;;;;;;2.50;0.60;;;;;;;;;;5088891;28;20044;-71
2023/12/23 02:14:08;;;;;;;5.47;1.10;;;;;;;;;;5089811;28;20055;-71
2023/12/23 02:16:36;;;;;;;4.00;0.90;;;;;;;;;;5093141;28;20046;-70
2023/12/23 02:19:03;;;;;;;2.38;0.68;;;;;;;;;;5092451;28;20051;-70
2023/12/23 02:21:29;;;;;;;1.98;0.95;;;;;;;;;;5092518;28;20055;-71
2023/12/23 02:23:56;;;;;;;3.60;0.65;;;;;;;;;;5092134;28;20051;-71
2023/12/23 02:26:30;;;;;;;5.32;0.90;;;;;;;;;;5092040;28;20051;-71
2023/12/23 02:29:00;;;;;;;3.00;0.70;;;;;;;;;;5092472;28;20036;-71
2023/12/23 02:31:28;;;;;;;2.35;0.57;;;;;;;;;;5092296;28;20052;-71
2023/12/23 02:33:59;;;;;;;3.58;0.68;;;;;;;;;;5092071;28;20051;-71
2023/12/23 02:36:25;;;;;;;5.55;1.02;;;;;;;;;;5092377;28;20044;-71
2023/12/23 02:38:52;;;;;;;2.58;0.75;;;;;;;;;;5091499;28;20051;-71
2023/12/23 02:41:19;;;;;;;4.50;0.75;;;;;;;;;;5092222;28;20055;-71
2023/12/23 02:43:46;;;;;;;6.38;0.90;;;;;;;;;;5091918;28;20491;-71
2023/12/23 02:46:12;;;;;;;2.85;0.77;;;;;;;;;;5092343;28;20048;-71
2023/12/23 02:48:39;;;;;;;7.88;0.88;;;;;;;;;;5091595;28;20127;-71
2023/12/23 02:51:06;;;;;;;5.00;0.80;;;;;;;;;;5091871;28;20725;-71
2023/12/23 02:53:33;;;;;;;3.88;0.95;;;;;;;;;;5091663;28;20052;-71
2023/12/23 02:55:59;;;;;;;5.30;0.93;;;;;;;;;;5091618;28;20055;-71
2023/12/23 02:58:26;;;;;;;2.80;0.60;;;;;;;;;;5091278;28;20040;-71
2023/12/23 03:00:53;;;;;;;5.53;0.93;;;;;;;;;;5091730;28;20048;-71
2023/12/23 03:03:19;;;;;;;7.00;0.90;;;;;;;;;;5091681;28;20048;-71
2023/12/23 03:05:46;;;;;;;3.03;0.85;;;;;;;;;;5091769;28;20523;-71
2023/12/23 03:08:13;;;;;;;5.40;0.90;;;;;;;;;;5091065;28;20058;-71
2023/12/23 03:10:40;;;;;;;2.90;0.65;;;;;;;;;;5091775;28;20051;-71
2023/12/23 03:13:06;;;;;;;3.67;0.73;;;;;;;;;;5091313;28;20155;-71
2023/12/23 03:15:33;;;;;;;4.97;0.68;;;;;;;;;;5091435;28;20051;-71
2023/12/23 03:18:00;;;;;;;4.63;0.70;;;;;;;;;;5090957;28;20044;-71
2023/12/23 03:20:26;;;;;;;3.70;0.73;;;;;;;;;;5091603;28;20044;-71
2023/12/23 03:22:53;;;;;;;3.50;0.80;;;;;;;;;;5091304;28;20051;-71
2023/12/23 03:25:20;;;;;;;3.00;0.90;;;;;;;;;;5089891;28;20062;-71
2023/12/23 03:27:46;;;;;;;3.83;0.65;;;;;;;;;;5090939;28;20504;-71
2023/12/23 03:30:13;;;;;;;3.65;0.70;;;;;;;;;;5090877;28;20048;-71
2023/12/23 03:32:40;;;;;;;3.38;0.77;;;;;;;;;;5091459;28;20048;-71
2023/12/23 03:35:07;;;;;;;2.78;0.80;;;;;;;;;;5091079;28;20047;-71
2023/12/23 03:37:34;;;;;;;3.45;0.57;;;;;;;;;;5090846;28;20048;-70
2023/12/23 03:40:00;;;;;;;5.55;0.75;;;;;;;;;;5090976;28;20117;-70
2023/12/23 03:42:27;;;;;;;4.15;0.63;;;;;;;;;;5090980;28;20136;-71
2023/12/23 03:44:56;;;;;;;1.50;0.47;;;;;;;;;;5090794;28;20040;-70
2023/12/23 03:47:23;;;;;;;4.57;0.90;;;;;;;;;;5090971;28;20052;-70
2023/12/23 03:49:49;;;;;;;2.88;0.75;;;;;;;;;;5090451;28;20071;-71
2023/12/23 03:52:16;;;;;;;2.97;0.70;;;;;;;;;;5090879;28;20044;-71
2023/12/23 03:54:43;;;;;;;6.05;1.33;;;;;;;;;;5090575;28;20105;-70
2023/12/23 03:57:09;;;;;;;4.50;0.70;;;;;;;;;;5090712;28;20499;-70
2023/12/23 03:59:38;;;;;;;3.25;0.90;;;;;;;;;;5090255;28;20565;-70
2023/12/23 04:02:05;;;;;;;2.50;0.60;;;;;;;;;;5090788;28;20052;-70
2023/12/23 04:04:32;;;;;;;5.72;0.70;;;;;;;;;;5090337;28;20039;-71
2023/12/23 04:06:59;;;;;;;3.65;0.70;;;;;;;;;;5090489;28;20047;-71
2023/12/23 04:09:26;;;;;;;3.65;1.38;;;;;;;;;;5089938;28;20487;-70
2023/12/23 04:11:52;;;;;;;1.98;0.60;;;;;;;;;;5090312;28;20055;-70
2023/12/23 04:14:19;;;;;;;3.42;0.65;;;;;;;;;;5090231;28;20044;-71
2023/12/23 04:16:47;;;;;;;5.25;0.70;;;;;;;;;;5090562;28;20048;-70
2023/12/23 04:19:13;;;;;;;5.80;1.13;;;;;;;;;;5090209;28;20040;-71
2023/12/23 04:21:40;;;;;;;3.78;0.70;;;;;;;;;;5090106;28;20107;-71
2023/12/23 04:24:07;;;;;;;1.85;0.50;;;;;;;;;;5089756;28;20048;-69
2023/12/23 04:26:34;;;;;;;4.18;0.70;;;;;;;;;;5089861;28;20569;-70
2023/12/23 04:29:01;;;;;;;3.10;0.63;;;;;;;;;;5089897;28;20044;-70
2023/12/23 04:31:28;;;;;;;3.22;0.73;;;;;;;;;;5090297;28;20051;-70
2023/12/23 04:33:54;;;;;;;4.20;0.70;;;;;;;;;;5089832;28;20050;-70
2023/12/23 04:36:24;;;;;;;6.07;0.90;;;;;;;;;;5089863;28;20522;-70
2023/12/23 04:38:51;;;;;;;4.13;0.65;;;;;;;;;;5089476;28;20187;-70
2023/12/23 04:41:18;;;;;;;3.90;0.60;;;;;;;;;;5089791;28;20404;-70
2023/12/23 04:43:45;;;;;;;4.28;0.73;;;;;;;;;;5089738;28;20052;-70
2023/12/23 04:46:12;;;;;;;3.95;1.00;;;;;;;;;;5090015;28;20100;-70
2023/12/23 04:48:39;;;;;;;2.97;0.70;;;;;;;;;;5089827;28;20131;-70
2023/12/23 04:51:05;;;;;;;1.95;0.63;;;;;;;;;;5089640;28;20478;-70
2023/12/23 04:53:35;;;;;;;1.38;0.35;;;;;;;;;;5089641;28;20618;-70
2023/12/23 04:56:01;;;;;;;4.00;0.70;;;;;;;;;;5089489;28;20044;-70
2023/12/23 04:58:30;;;;;;;4.00;0.57;;;;;;;;;;5089241;28;20079;-70
2023/12/23 05:00:57;;;;;;;4.25;1.00;;;;;;;;;;5089595;28;20048;-70
2023/12/23 05:03:24;;;;;;;4.63;0.77;;;;;;;;;;5089820;28;20123;-70
2023/12/23 05:05:51;;;;;;;4.65;0.73;;;;;;;;;;5089342;28;20048;-70
2023/12/23 05:08:18;;;;;;;3.90;0.70;;;;;;;;;;5089374;28;20044;-71
2023/12/23 05:10:44;;;;;;;3.30;0.57;;;;;;;;;;5089243;28;20048;-70
2023/12/23 05:13:11;;;;;;;5.85;0.68;;;;;;;;;;5089730;28;20117;-70
2023/12/23 05:15:39;;;;;;;4.03;0.60;;;;;;;;;;5089424;28;20044;-71
2023/12/23 05:18:05;;;;;;;4.00;0.57;;;;;;;;;;5089368;28;20044;-71
2023/12/23 05:20:32;;;;;;;4.85;0.80;;;;;;;;;;5089180;28;20044;-70
2023/12/23 05:22:59;;;;;;;6.40;0.90;;;;;;;;;;5089580;28;20044;-70
2023/12/23 05:25:25;;;;;;;6.82;1.00;;;;;;;;;;5089067;28;20059;-71
2023/12/23 05:27:52;;;;;;;2.25;0.65;;;;;;;;;;5089582;28;20097;-70
2023/12/23 05:30:19;;;;;;;2.00;0.47;;;;;;;;;;5089001;28;20051;-69
2023/12/23 05:32:45;;;;;;;3.40;0.90;;;;;;;;;;5089213;28;20644;-70
2023/12/23 05:35:12;;;;;;;1.80;0.40;;;;;;;;;;5088925;28;20041;-70
2023/12/23 05:37:39;;;;;;;1.98;0.30;;;;;;;;;;5089234;28;20044;-70
2023/12/23 05:40:06;;;;;;;2.85;0.57;;;;;;;;;;5088757;28;20063;-70
2023/12/23 05:42:33;;;;;;;1.05;0.40;;;;;;;;;;5089534;28;20044;-71
2023/12/23 05:45:00;;;;;;;1.10;0.45;;;;;;;;;;5088924;28;20439;-71
2023/12/23 05:47:29;;;;;;;2.55;0.43;;;;;;;;;;5089244;28;20076;-71
2023/12/23 05:49:57;;;;;;;2.78;0.50;;;;;;;;;;5092090;28;20108;-70
2023/12/23 05:52:24;;;;;;;1.13;0.40;;;;;;;;;;5092808;28;20534;-70
2023/12/23 05:54:50;;;;;;;1.17;0.40;;;;;;;;;;5092610;28;20442;-71
2023/12/23 05:57:17;;;;;;;6.85;0.73;;;;;;;;;;5092866;28;20044;-70
2023/12/23 05:59:44;;;;;;;2.63;0.70;;;;;;;;;;5092722;28;20056;-70
2023/12/23 06:02:10;;;;;;;0.55;0.40;;;;;;;;;;5092989;28;20044;-71
2023/12/23 06:04:37;;;;;;;2.97;0.57;;;;;;;;;;5092702;28;20458;-70
2023/12/23 06:07:04;;;;;;;3.17;0.50;;;;;;;;;;5092655;28;20415;-70
2023/12/23 06:09:31;;;;;;;3.80;0.50;;;;;;;;;;5092114;28;20051;-70
2023/12/23 06:11:57;;;;;;;3.95;0.60;;;;;;;;;;5092575;28;20051;-70
2023/12/23 06:14:24;;;;;;;1.42;0.60;;;;;;;;;;5092585;28;20040;-70
2023/12/23 06:16:51;;;;;;;2.63;0.60;;;;;;;;;;5092461;28;20148;-70
2023/12/23 06:19:18;;;;;;;3.25;0.60;;;;;;;;;;5092556;28;20069;-70
2023/12/23 06:21:46;;;;;;;3.05;0.60;;;;;;;;;;5092260;28;20207;-70
2023/12/23 06:24:13;;;;;;;1.95;0.50;;;;;;;;;;5092494;28;20127;-70
2023/12/23 06:26:40;;;;;;;0.95;0.40;;;;;;;;;;5092072;28;20052;-70
2023/12/23 06:29:11;;;;;;;2.00;0.60;;;;;;;;;;5092307;28;20048;-70
2023/12/23 06:31:38;;;;;;;3.90;0.60;;;;;;;;;;5092170;28;20086;-71
2023/12/23 06:34:04;;;;;;;2.53;0.60;;;;;;;;;;5092383;28;20109;-70
2023/12/23 06:36:31;;;;;;;1.45;0.50;;;;;;;;;;5092229;28;20040;-70
2023/12/23 06:38:58;;;;;;;1.67;0.57;;;;;;;;;;5092157;28;20044;-70
2023/12/23 06:41:25;;;;;;;2.58;0.45;;;;;;;;;;5092052;28;20469;-70
2023/12/23 06:43:51;;;;;;;2.88;0.73;;;;;;;;;;5092133;28;20105;-70
2023/12/23 06:46:19;;;;;;;2.05;0.60;;;;;;;;;;5091924;28;20048;-70
2023/12/23 06:48:45;;;;;;;2.20;0.60;;;;;;;;;;5092017;28;20123;-70
2023/12/23 06:51:13;;;;;;;3.05;0.47;;;;;;;;;;5091704;28;20147;-71
2023/12/23 06:53:39;;;;;;;4.30;0.68;;;;;;;;;;5091879;28;20047;-70
2023/12/23 06:56:06;;;;;;;2.78;0.70;;;;;;;;;;5091932;28;20044;-71
2023/12/23 06:58:33;;;;;;;1.50;0.45;;;;;;;;;;5091985;28;20135;-70
2023/12/23 07:01:01;;;;;;;1.65;0.50;;;;;;;;;;5091103;28;20083;-70
2023/12/23 07:03:27;;;;;;;2.95;0.75;;;;;;;;;;5091576;28;20042;-70
2023/12/23 07:05:54;;;;;;;1.33;0.73;;;;;;;;;;5091375;28;20040;-70
2023/12/23 07:08:21;;;;;;;2.72;0.90;;;;;;;;;;5091374;28;20044;-70
2023/12/23 07:10:48;;;;;;;1.77;0.40;;;;;;;;;;5090896;28;20040;-70
2023/12/23 07:13:15;;;;;;;2.65;0.75;;;;;;;;;;5091719;28;20140;-70
2023/12/23 07:15:42;;;;;;;1.90;0.68;;;;;;;;;;5091481;28;20074;-70
2023/12/23 07:18:09;;;;;;;3.38;0.75;;;;;;;;;;5091560;28;20136;-70
2023/12/23 07:20:39;;;;;;;4.25;0.60;;;;;;;;;;5090818;28;20048;-71
2023/12/23 07:23:05;;;;;;;4.47;0.80;;;;;;;;;;5091259;28;20044;-71
2023/12/23 07:25:32;;;;;;;4.03;0.60;;;;;;;;;;5090899;28;20047;-71
2023/12/23 07:27:58;;;;;;;2.03;0.60;;;;;;;;;;5091336;28;20052;-70
2023/12/23 07:30:25;;;;;;;1.13;0.50;;;;;;;;;;5090755;28;20488;-70
2023/12/23 07:32:52;;;;;;;2.95;0.70;;;;;;;;;;5090926;28;20051;-71
2023/12/23 07:35:19;;;;;;;2.55;0.50;;;;;;;;;;5073309;28;20117;-71
2023/12/23 07:37:48;;;;;;;4.05;0.90;;;;;;;;;;5090828;28;20137;-70
2023/12/23 07:40:14;;;;;;;1.42;0.52;;;;;;;;;;5090735;28;20048;-70
2023/12/23 07:42:41;;;;;;;2.95;0.70;;;;;;;;;;5090710;28;20044;-70
2023/12/23 07:45:09;;;;;;;1.80;0.70;;;;;;;;;;5091028;28;20051;-70
2023/12/23 07:47:35;;;;;;;2.13;1.05;;;;;;;;;;5090763;28;20054;-71
2023/12/23 07:50:03;;;;;;;1.20;0.55;;;;;;;;;;5090494;28;20427;-70
2023/12/23 07:52:30;;;;;;;1.90;0.55;;;;;;;;;;5090748;28;20048;-70
2023/12/23 07:54:57;;;;;;;1.48;0.60;;;;;;;;;;5090499;28;20051;-70
2023/12/23 07:57:23;;;;;;;1.45;0.47;;;;;;;;;;5090266;28;20040;-70
2023/12/23 07:59:50;;;;;;;1.45;0.50;;;;;;;;;;5090243;28;20050;-71
2023/12/23 08:02:17;;;;;;;3.45;0.80;;;;;;;;;;5090556;28;20062;-70
2023/12/23 08:04:47;;;;;;;2.05;0.80;;;;;;;;;;5090445;28;20090;-70
2023/12/23 08:07:13;;;;;;;3.53;0.87;;;;;;;;;;5090386;28;20554;-71
2023/12/23 08:09:41;;;;;;;0.77;0.60;;;;;;;;;;5090434;28;20131;-71
2023/12/23 08:12:08;;;;;;;1.38;0.60;;;;;;;;;;5089571;28;20043;-70
2023/12/23 08:14:35;;;;;;;1.63;0.70;;;;;;;;;;5090363;28;20060;-72
2023/12/23 08:17:01;;;;;;;2.03;0.80;;;;;;;;;;5090062;28;20044;-70
2023/12/23 08:19:28;;;;;;;2.92;0.75;;;;;;;;;;5090447;28;20055;-70
2023/12/23 08:21:55;;;;;;;1.83;0.65;;;;;;;;;;5090152;28;20044;-70
2023/12/23 08:24:22;;;;;;;2.00;0.70;;;;;;;;;;5089958;28;20612;-70
2023/12/23 08:26:49;;;;;;;2.30;0.85;;;;;;;;;;5089738;28;20052;-70
2023/12/23 08:29:16;;;;;;;2.53;1.15;;;;;;;;;;5090066;28;20051;-70
2023/12/23 08:31:44;;;;;;;1.60;0.70;;;;;;;;;;5089589;28;20071;-70
2023/12/23 08:34:11;;;;;;;3.00;1.20;;;;;;;;;;5089639;28;20138;-70
2023/12/23 08:36:38;;;;;;;2.78;0.80;;;;;;;;;;5089556;28;20044;-70
2023/12/23 08:39:05;;;;;;;1.38;0.75;;;;;;;;;;5089736;28;20428;-70
2023/12/23 08:41:31;;;;;;;2.28;0.80;;;;;;;;;;5089424;28;20539;-71
2023/12/23 08:43:58;;;;;;;1.52;0.70;;;;;;;;;;5089985;28;20054;-70
2023/12/23 08:46:25;;;;;;;3.70;0.88;;;;;;;;;;5089634;28;20443;-70
2023/12/23 08:48:51;;;;;;;2.15;0.80;;;;;;;;;;5089667;28;20055;-70
2023/12/23 08:51:18;;;;;;;1.63;0.80;;;;;;;;;;5089258;28;20105;-70
2023/12/23 08:53:45;;;;;;;1.55;0.70;;;;;;;;;;5089227;28;20048;-71
2023/12/23 08:56:12;;;;;;;0.82;0.50;;;;;;;;;;5089518;28;20055;-71
2023/12/23 08:58:38;;;;;;;2.50;0.75;;;;;;;;;;5089621;28;20044;-71
2023/12/23 09:01:05;;;;;;;2.58;0.93;;;;;;;;;;5089559;28;20075;-70
2023/12/23 09:03:32;;;;;;;3.67;0.70;;;;;;;;;;5089307;28;20040;-70
2023/12/23 09:05:59;;;;;;;1.27;0.55;;;;;;;;;;5089459;28;20123;-70
2023/12/23 09:08:26;;;;;;;1.48;0.65;;;;;;;;;;5088787;28;20706;-70
2023/12/23 09:10:52;;;;;;;2.75;0.50;;;;;;;;;;5089056;28;20622;-70
2023/12/23 09:13:19;;;;;;;1.42;0.55;;;;;;;;;;5088920;28;20051;-70
2023/12/23 09:15:46;;;;;;;1.92;0.70;;;;;;;;;;5089323;28;20051;-69
2023/12/23 09:18:12;;;;;;;0.88;0.60;;;;;;;;;;5089446;28;20048;-71
2023/12/23 09:20:39;;;;;;;1.38;0.70;;;;;;;;;;5089183;28;20044;-70
2023/12/23 09:23:06;;;;;;;3.72;0.90;;;;;;;;;;5089394;28;20048;-70
2023/12/23 09:25:32;;;;;;;2.80;0.88;;;;;;;;;;5093163;28;20143;-70
2023/12/23 09:27:59;;;;;;;1.13;0.68;;;;;;;;;;5093155;28;20063;-70
2023/12/23 09:30:26;;;;;;;2.03;0.77;;;;;;;;;;5093429;28;20047;-70
2023/12/23 09:32:52;;;;;;;2.10;1.27;;;;;;;;;;5075376;28;20048;-70
2023/12/23 09:35:22;;;;;;;0.70;0.50;;;;;;;;;;5093296;28;20084;-70
2023/12/23 09:37:52;;;;;;;2.50;0.80;;;;;;;;;;5093185;28;20078;-70
2023/12/23 09:40:19;;;;;;;2.50;0.70;;;;;;;;;;5093097;28;20446;-70
2023/12/23 09:42:46;;;;;;;1.80;0.75;;;;;;;;;;5093118;28;20051;-70
2023/12/23 09:45:16;;;;;;;2.20;0.90;;;;;;;;;;5093042;28;20595;-70
2023/12/23 09:47:46;;;;;;;1.52;0.77;;;;;;;;;;5092762;28;20127;-69
2023/12/23 09:50:13;;;;;;;1.73;0.80;;;;;;;;;;5093388;28;20048;-70
2023/12/23 09:52:39;;;;;;;2.00;0.80;;;;;;;;;;5092704;28;20082;-70
2023/12/23 09:55:09;;;;;;;1.02;0.60;;;;;;;;;;5092710;28;20086;-71
2023/12/23 09:57:36;;;;;;;2.43;0.80;;;;;;;;;;5074922;28;20067;-70
2023/12/23 10:00:04;;;;;;;2.38;0.70;;;;;;;;;;5074782;28;20048;-70
2023/12/23 10:02:30;;;;;;;1.23;0.60;;;;;;;;;;5092156;28;20054;-70
2023/12/23 10:04:57;;;;;;;2.95;0.70;;;;;;;;;;5092939;28;20052;-70
2023/12/23 10:07:24;;;;;;;0.95;0.52;;;;;;;;;;5092674;28;20044;-70
2023/12/23 10:09:51;;;;;;;1.92;0.80;;;;;;;;;;5092628;28;20054;-71
2023/12/23 10:12:21;;;;;;;1.52;0.70;;;;;;;;;;5074552;28;20051;-70
2023/12/23 10:14:50;;;;;;;1.30;0.52;;;;;;;;;;5093681;28;20059;-70
2023/12/23 10:17:19;;;;;;;0.75;0.57;;;;;;;;;;5074877;28;20127;-70
2023/12/23 10:19:47;;;;;;;1.00;0.60;;;;;;;;;;5092363;28;20044;-70
2023/12/23 10:22:18;;;;;;;1.92;0.60;;;;;;;;;;5092234;28;20040;-70
2023/12/23 10:24:45;;;;;;;0.52;0.30;;;;;;;;;;5091899;28;20470;-72
2023/12/23 10:27:16;;;;;;;0.90;0.60;;;;;;;;;;5092132;28;20059;-70
2023/12/23 10:29:44;;;;;;;0.55;0.50;;;;;;;;;;5092045;28;20040;-70
2023/12/23 10:32:14;;;;;;;1.80;0.57;;;;;;;;;;5092196;28;20112;-71
2023/12/23 10:34:44;;;;;;;1.67;0.50;;;;;;;;;;5091239;28;20554;-71
2023/12/23 10:37:11;;;;;;;0.55;0.35;;;;;;;;;;5092047;28;20049;-71
2023/12/23 10:40:05;;;;;;;0.85;0.40;;;;;;;;;;5091487;28;20508;-70
2023/12/23 10:42:33;;;;;;;1.70;0.52;;;;;;;;;;5091908;28;20050;-70
2023/12/23 10:45:01;;;;;;;1.70;0.57;;;;;;;;;;5088947;28;20041;-70
2023/12/23 10:47:29;;;;;;;0.82;0.50;;;;;;;;;;5080242;28;20064;-69
2023/12/23 10:49:56;;;;;;;1.35;0.43;;;;;;;;;;5082110;28;20040;-70
2023/12/23 10:52:24;;;;;;;1.38;0.50;;;;;;;;;;5091521;28;20047;-70
2023/12/23 10:54:51;;;;;;;1.13;0.45;;;;;;;;;;5075577;28;20132;-70
2023/12/23 10:57:22;;;;;;;0.98;0.47;;;;;;;;;;5071385;28;20049;-70
2023/12/23 10:59:48;;;;;;;;;;;;;;;;;;5071449;28;20143;-70
2023/12/23 11:02:20;;;;;;;1.67;0.30;;;;;;;;;;5077914;28;19920;-70
2023/12/23 11:04:51;;;;;;;0.30;0.22;;;;;;;;;;5091568;28;20097;-71
2023/12/23 11:07:22;;;;;;;0.80;0.30;;;;;;;;;;5091984;28;20164;-70
2023/12/23 11:09:51;;;;;;;0.45;0.30;;;;;;;;;;5091032;28;20500;-70
2023/12/23 11:12:18;;;;;;;0.55;0.35;;;;;;;;;;5091416;28;20051;-70
2023/12/23 11:14:46;;;;;;;1.10;0.40;;;;;;;;;;5091024;28;20634;-70
2023/12/23 11:17:26;;;;;;;5.35;0.65;;;;;;;;;;5091397;28;20048;-70
2023/12/23 11:20:01;;;;;;;0.88;0.32;;;;;;;;;;5079825;28;20569;-70
2023/12/23 11:22:38;;;;;;;2.05;0.30;;;;;;;;;;5070799;28;20105;-70
2023/12/23 11:25:38;;;;;;;0.88;0.40;;;;;;;;;;5070608;28;20040;-70
2023/12/23 11:28:09;;;;;;;1.05;0.47;;;;;;;;;;5064714;28;20053;-73
2023/12/23 11:30:49;;;;;;;1.35;0.50;;;;;;;;;;5071031;28;20044;-71
2023/12/23 11:33:24;;;;;;;1.20;0.50;;;;;;;;;;5070443;28;20424;-70
2023/12/23 11:35:52;;;;;;;1.13;0.30;;;;;;;;;;5070919;28;20072;-70
2023/12/23 11:38:26;;;;;;;0.30;0.20;;;;;;;;;;5070890;28;20065;-70
2023/12/23 11:40:53;;;;;;;0.80;0.38;;;;;;;;;;5070466;28;20049;-70
2023/12/23 11:43:19;;;;;;;1.83;0.60;;;;;;;;;;5070595;28;20070;-70
2023/12/23 11:45:48;;;;;;;0.28;0.28;;;;;;;;;;5077855;28;20518;-70
2023/12/23 11:48:18;;;;;;;0.47;0.40;;;;;;;;;;5090535;28;20516;-70
2023/12/23 11:50:44;;;;;;;0.50;0.40;;;;;;;;;;5090440;28;20105;-70
2023/12/23 11:53:12;;;;;;;0.88;0.40;;;;;;;;;;5086250;28;20047;-70
2023/12/23 11:55:39;;;;;;;1.02;0.43;;;;;;;;;;5088942;28;20066;-70
2023/12/23 11:58:07;;;;;;;0.45;0.40;;;;;;;;;;5090569;28;20051;-70
2023/12/23 12:00:36;;;;;;;0.65;0.30;;;;;;;;;;5089959;28;20055;-71
2023/12/23 12:03:07;;;;;;;0.50;0.40;;;;;;;;;;5088782;28;20048;-70
2023/12/23 12:05:33;;;;;;;1.55;0.45;;;;;;;;;;5089011;28;20048;-70
2023/12/23 12:08:00;;;;;;;1.35;0.47;;;;;;;;;;5090125;28;20047;-70
2023/12/23 12:10:27;;;;;;;0.45;0.38;;;;;;;;;;5089266;28;20056;-72
2023/12/23 12:12:54;;;;;;;0.45;0.30;;;;;;;;;;5090552;28;20050;-71
2023/12/23 12:15:21;;;;;;;0.38;0.35;;;;;;;;;;5091639;28;20221;-72
2023/12/23 12:17:47;;;;;;;0.77;0.50;;;;;;;;;;5091739;28;20051;-72
2023/12/23 12:20:15;;;;;;;0.52;0.30;;;;;;;;;;5089881;28;20504;-71
2023/12/23 12:22:45;;;;;;;2.53;0.40;;;;;;;;;;5093725;28;20052;-70
2023/12/23 12:25:14;;;;;;;0.90;0.40;;;;;;;;;;5093633;28;20082;-69
2023/12/23 12:27:41;;;;;;;1.30;0.45;;;;;;;;;;5094862;28;20044;-69
2023/12/23 12:30:11;;;;;;;2.47;0.52;;;;;;;;;;5084286;28;20044;-69
2023/12/23 12:32:58;;;;;;;3.05;0.90;;;;;;;;;;5078318;28;20078;-70
2023/12/23 12:35:25;;;;;;;0.90;0.50;;;;;;;;;;5092789;28;20044;-70
2023/12/23 12:37:52;;;;;;;1.50;0.50;;;;;;;;;;5092212;28;20083;-69
2023/12/23 12:40:18;;;;;;;0.90;0.40;;;;;;;;;;5091496;28;20044;-71
2023/12/23 12:42:49;;;;;;;0.77;0.45;;;;;;;;;;5088645;28;20044;-71
2023/12/23 12:45:16;;;;;;;3.20;0.82;;;;;;;;;;5089396;28;20575;-70
2023/12/23 12:47:44;;;;;;;0.68;0.47;;;;;;;;;;5088454;28;20156;-70
2023/12/23 12:50:11;;;;;;;2.17;0.57;;;;;;;;;;5087964;28;20420;-71
2023/12/23 12:52:38;;;;;;;3.88;0.98;;;;;;;;;;5087705;28;20412;-70
2023/12/23 12:55:05;;;;;;;1.52;0.60;;;;;;;;;;5087141;28;20047;-70
2023/12/23 12:57:32;;;;;;;3.58;1.27;;;;;;;;;;5087544;28;20040;-70
2023/12/23 12:59:59;;;;;;;1.55;0.50;;;;;;;;;;5087825;28;20052;-70
2023/12/23 13:02:26;;;;;;;1.23;0.60;;;;;;;;;;5087915;28;20059;-70
2023/12/23 13:04:53;;;;;;;1.17;0.50;;;;;;;;;;5089322;28;20044;-70
2023/12/23 13:07:20;;;;;;;1.77;0.88;;;;;;;;;;5089300;28;20040;-71
2023/12/23 13:09:47;;;;;;;1.33;0.70;;;;;;;;;;5088852;28;20048;-69
2023/12/23 13:12:15;;;;;;;1.27;0.70;;;;;;;;;;5089202;28;20500;-70
2023/12/23 13:14:42;;;;;;;1.70;0.95;;;;;;;;;;5089158;28;20052;-70
2023/12/23 13:17:09;;;;;;;1.80;0.75;;;;;;;;;;5089419;28;20044;-70
2023/12/23 13:19:37;;;;;;;0.80;0.40;;;;;;;;;;5088834;28;20441;-69
2023/12/23 13:22:03;;;;;;;2.15;0.50;;;;;;;;;;5071484;28;20159;-70
2023/12/23 13:24:30;;;;;;;2.60;0.50;;;;;;;;;;5088721;28;20150;-70
2023/12/23 13:26:57;;;;;;;3.47;0.55;;;;;;;;;;5088981;28;20084;-70
2023/12/23 13:29:24;;;;;;;1.60;0.38;;;;;;;;;;5089453;28;20415;-70
2023/12/23 13:31:51;;;;;;;1.48;0.60;;;;;;;;;;5088998;28;20048;-70
2023/12/23 13:34:18;;;;;;;0.98;0.60;;;;;;;;;;5088793;28;20048;-70
2023/12/23 13:36:44;;;;;;;0.60;0.40;;;;;;;;;;5089007;28;20093;-70
2023/12/23 13:39:11;;;;;;;3.25;0.65;;;;;;;;;;5088924;28;20052;-70
2023/12/23 13:41:38;;;;;;;1.30;0.75;;;;;;;;;;5089006;28;20054;-70
2023/12/23 13:44:05;;;;;;;2.83;0.60;;;;;;;;;;5089172;28;20131;-70
2023/12/23 13:46:31;;;;;;;2.95;0.60;;;;;;;;;;5089237;28;20102;-69
2023/12/23 13:48:58;;;;;;;1.55;0.73;;;;;;;;;;5089221;28;20051;-70
2023/12/23 13:51:25;;;;;;;1.13;0.77;;;;;;;;;;5089026;28;20054;-70
2023/12/23 13:53:52;;;;;;;0.65;0.45;;;;;;;;;;5088375;28;20051;-70
2023/12/23 13:56:19;;;;;;;0.90;0.55;;;;;;;;;;5088437;28;20101;-70
2023/12/23 13:58:46;;;;;;;0.57;0.40;;;;;;;;;;5089024;28;20075;-70
2023/12/23 14:01:13;;;;;;;0.47;0.30;;;;;;;;;;5088648;28;20048;-70
2023/12/23 14:03:40;;;;;;;0.68;0.45;;;;;;;;;;5088793;28;20140;-69
2023/12/23 14:06:07;;;;;;;1.88;0.73;;;;;;;;;;5088554;28;20045;-70
2023/12/23 14:08:34;;;;;;;0.55;0.50;;;;;;;;;;5088826;28;20409;-71
2023/12/23 14:11:00;;;;;;;0.95;0.50;;;;;;;;;;5091536;28;20055;-71
2023/12/23 14:13:27;;;;;;;1.05;0.50;;;;;;;;;;5092233;28;20487;-71
2023/12/23 14:15:54;;;;;;;2.40;0.70;;;;;;;;;;5092391;28;20059;-71
2023/12/23 14:18:21;;;;;;;0.88;0.50;;;;;;;;;;5092865;28;20051;-70
2023/12/23 14:20:47;;;;;;;0.90;0.50;;;;;;;;;;5092284;28;20564;-70
2023/12/23 14:23:14;;;;;;;2.95;1.45;;;;;;;;;;5092593;28;20076;-70
2023/12/23 14:25:41;;;;;;;3.28;1.33;;;;;;;;;;5091962;28;20062;-71
2023/12/23 14:28:08;;;;;;;1.52;0.90;;;;;;;;;;5092353;28;20040;-70
2023/12/23 14:30:35;;;;;;;1.73;0.75;;;;;;;;;;5092075;28;20059;-70
2023/12/23 14:33:04;;;;;;;0.95;0.60;;;;;;;;;;5092291;28;20048;-71
2023/12/23 14:35:30;;;;;;;1.27;0.80;;;;;;;;;;5092115;28;20056;-71
2023/12/23 14:37:57;;;;;;;1.48;0.60;;;;;;;;;;5092242;28;20048;-70
2023/12/23 14:40:24;;;;;;;1.73;0.90;;;;;;;;;;5092066;28;20052;-71
2023/12/23 14:42:51;;;;;;;2.10;0.90;;;;;;;;;;5091863;28;20040;-71
2023/12/23 14:45:18;;;;;;;1.48;0.80;;;;;;;;;;5091665;28;20500;-69